Juneau, WI

3:08 PM CST on February 20, 2017 (GMT -0600)
Dodge County

Weather History for KUNU - November, 2013

Change the Weather History Date:

Wednesday, November 6, 2013

  Actual Average Record
Temperature  
Mean Temperature 42 °F -  
Max Temperature 53 °F 47 °F 67 °F (2016)
Min Temperature 31 °F 33 °F 12 °F (1991)
Degree Days  
Heating Degree Days 23    
Moisture  
Dew Point 37 °F    
Average Humidity 83    
Maximum Humidity 100    
Minimum Humidity 57    
Precipitation  
Precipitation 0.20 in - - ()
Sea Level Pressure  
Sea Level Pressure 29.92 in    
Wind  
Wind Speed 13 mph (West)    
Max Wind Speed 20 mph    
Max Gust Speed 33 mph    
Visibility 8 miles    
Events Rain    
Averages and records for this station are not official NWS values.
T = Trace of Precipitation, MM = Missing Value Source: NWS Daily Summary

Daily Weather History Graph

Daily Weather History Graph

Search for Another Location

Airport or City:

Trip Planner

Search our weather history database for the weather conditions in past years. The results will help you decide how hot, cold, wet, or windy it might be!

Date:

Astronomy

Nov. 06, 2013 Rise Set
Actual Time 6:36 AM CST 4:39 PM CST
Civil Twilight 6:06 AM CST 5:09 PM CST
Nautical Twilight 5:32 AM CST 5:43 PM CST
Astronomical Twilight 4:59 AM CST 6:16 PM CST
Moon 9:54 AM CST (11/6) 7:41 PM CST (11/6)
Length of Visible Light 11h 02m
Length of Day
10h 02m
Waxing Crescent, 14% of the Moon is Illuminated
Nov 6
Waxing Crescent
Nov 9
First Quarter
Nov 17
Full
Nov 25
Last Quarter
Dec 2
New

Hourly Weather History & Observations

Time (CST) Temp. Windchill Dew Point Humidity Pressure Visibility Wind Dir Wind Speed Gust Speed Precip Events Conditions
12:15 AM 51.1 °F - 50.4 °F 97% 29.87 in 5.0 mi South 16.1 mph 33.4 mph N/A   Overcast
12:35 AM 51.3 °F - 50.5 °F 97% 29.86 in 5.0 mi South 18.4 mph 25.3 mph N/A   Light Drizzle
12:55 AM 51.8 °F - 50.9 °F 97% 29.85 in 5.0 mi South 17.3 mph 23.0 mph N/A   Overcast
1:15 AM 51.8 °F - 50.5 °F 95% 29.84 in 7.0 mi South 17.3 mph 25.3 mph N/A   Overcast
1:35 AM 52.0 °F - 50.4 °F 94% 29.83 in 10.0 mi South 18.4 mph 27.6 mph N/A   Overcast
1:55 AM 52.0 °F - 50.4 °F 94% 29.82 in 5.0 mi South 17.3 mph 24.2 mph N/A   Drizzle
2:15 AM 52.0 °F - 50.9 °F 96% 29.81 in 5.0 mi South 19.6 mph 24.2 mph N/A   Light Drizzle
2:35 AM 52.0 °F - 51.1 °F 97% 29.80 in 7.0 mi South 18.4 mph - 0.01 in   Overcast
2:55 AM 52.2 °F - 51.4 °F 97% 29.79 in 7.0 mi South 17.3 mph - 0.01 in   Overcast
3:15 AM 52.3 °F - 51.8 °F 98% 29.78 in 5.0 mi South 17.3 mph 23.0 mph N/A   Overcast
3:35 AM 52.5 °F - 52.2 °F 99% 29.78 in 4.0 mi South 16.1 mph 21.9 mph N/A   Overcast
3:55 AM 52.7 °F - 52.3 °F 99% 29.77 in 3.0 mi South 15.0 mph - N/A Rain Rain
4:15 AM 52.7 °F - 52.7 °F 100% 29.76 in 4.0 mi South 17.3 mph - 0.01 in Rain Light Rain
4:35 AM 52.7 °F - 52.7 °F 100% 29.75 in 7.0 mi South 17.3 mph 24.2 mph 0.01 in Rain Light Rain
4:55 AM 52.7 °F - 52.7 °F 100% 29.75 in 7.0 mi South 16.1 mph 20.7 mph 0.03 in Rain Light Rain
5:15 AM 52.9 °F - 52.9 °F 100% 29.75 in 5.0 mi South 15.0 mph - 0.03 in Rain Rain
5:35 AM 52.9 °F - 52.9 °F 100% 29.73 in 7.0 mi South 15.0 mph - 0.04 in Rain Light Rain
5:55 AM 52.9 °F - 52.9 °F 100% 29.73 in 10.0 mi South 13.8 mph - 0.04 in   Overcast
6:15 AM 53.2 °F - 53.2 °F 100% 29.73 in 10.0 mi South 16.1 mph 20.7 mph N/A   Overcast
6:35 AM 53.6 °F - 53.6 °F 100% 29.72 in 7.0 mi South 15.0 mph - 0.01 in Rain Light Rain
6:55 AM 53.6 °F - 53.6 °F 100% 29.70 in 7.0 mi South 15.0 mph - 0.02 in Rain Rain
7:15 AM 48.7 °F - 46.8 °F 93% 29.73 in 10.0 mi West 9.2 mph 18.4 mph N/A Rain Light Rain
7:35 AM 45.1 °F 39.9 °F 44.6 °F 98% 29.74 in 3.0 mi WNW 10.4 mph 16.1 mph 0.02 in Rain Rain
7:55 AM 43.9 °F 39.3 °F 43.7 °F 99% 29.76 in 2.5 mi WNW 8.1 mph - 0.02 in   Drizzle
8:15 AM 43.2 °F 37.9 °F 43.0 °F 99% 29.77 in 3.0 mi NW 9.2 mph 16.1 mph N/A   Heavy Drizzle
8:35 AM 41.7 °F 35.2 °F 41.5 °F 99% 29.80 in 4.0 mi WNW 11.5 mph 19.6 mph N/A Rain Rain
8:55 AM 40.6 °F 33.0 °F 40.3 °F 99% 29.80 in 3.0 mi NNW 13.8 mph 17.3 mph 0.01 in   Heavy Drizzle
9:15 AM 39.2 °F 33.0 °F 39.2 °F 100% 29.82 in 3.0 mi NNW 9.2 mph 17.3 mph 0.02 in Rain Rain
9:35 AM 38.5 °F 30.3 °F 38.1 °F 99% 29.83 in 4.0 mi NW 13.8 mph 19.6 mph 0.04 in Rain Rain
9:55 AM 38.3 °F 30.5 °F 37.4 °F 97% 29.83 in 7.0 mi NW 12.7 mph 19.6 mph 0.07 in Rain Light Rain
10:15 AM 38.5 °F 30.3 °F 37.2 °F 95% 29.83 in 10.0 mi NW 13.8 mph 21.9 mph N/A Rain Light Rain
10:35 AM 38.5 °F 30.7 °F 36.9 °F 94% 29.84 in 10.0 mi NW 12.7 mph 17.3 mph N/A Rain Rain
10:55 AM 38.5 °F 29.9 °F 36.3 °F 92% 29.86 in 10.0 mi NW 15.0 mph 20.7 mph N/A   Overcast
11:15 AM 38.7 °F 30.1 °F 36.1 °F 91% 29.86 in 10.0 mi NW 15.0 mph 23.0 mph N/A   Overcast
11:35 AM 39.0 °F 31.8 °F 36.3 °F 90% 29.87 in 10.0 mi NW 11.5 mph 18.4 mph N/A   Overcast
11:55 AM 38.8 °F 30.8 °F 34.7 °F 85% 29.87 in 10.0 mi NW 13.8 mph 23.0 mph N/A   Overcast
12:15 PM 39.2 °F 31.2 °F 35.1 °F 85% 29.87 in 10.0 mi NW 13.8 mph 19.6 mph N/A   Overcast
12:35 PM 39.4 °F 31.4 °F 35.1 °F 84% 29.89 in 10.0 mi NW 13.8 mph - N/A   Overcast
12:55 PM 39.7 °F 31.9 °F 35.1 °F 83% 29.90 in 10.0 mi NW 13.8 mph 20.7 mph N/A   Overcast
1:15 PM 39.7 °F 32.7 °F 35.6 °F 85% 29.90 in 10.0 mi NW 11.5 mph 20.7 mph N/A   Overcast
1:35 PM 39.7 °F 33.2 °F 35.2 °F 84% 29.91 in 10.0 mi WNW 10.4 mph 17.3 mph N/A   Overcast
1:55 PM 40.8 °F 35.0 °F 34.9 °F 79% 29.92 in 10.0 mi WNW 9.2 mph 17.3 mph N/A   Overcast
2:15 PM 41.0 °F 34.3 °F 34.3 °F 77% 29.93 in 10.0 mi WNW 11.5 mph 16.1 mph N/A   Overcast
2:35 PM 41.0 °F 33.9 °F 32.5 °F 72% 29.95 in 10.0 mi WNW 12.7 mph 19.6 mph N/A   Overcast
2:55 PM 41.4 °F 36.2 °F 33.1 °F 72% 29.96 in 10.0 mi WNW 8.1 mph 16.1 mph N/A   Overcast
3:15 PM 41.4 °F 35.7 °F 32.9 °F 72% 29.97 in 10.0 mi WNW 9.2 mph - N/A   Overcast
3:35 PM 41.5 °F 37.8 °F 32.5 °F 70% 29.98 in 10.0 mi WNW 5.8 mph - N/A   Overcast
3:55 PM 41.9 °F 36.3 °F 32.2 °F 68% 29.99 in 10.0 mi WNW 9.2 mph 19.6 mph N/A   Overcast
4:15 PM 41.2 °F 35.5 °F 30.7 °F 66% 30.00 in 10.0 mi WNW 9.2 mph 16.1 mph N/A   Overcast
4:35 PM 41.0 °F 36.4 °F 30.9 °F 67% 30.01 in 10.0 mi West 6.9 mph - N/A   Overcast
4:55 PM 40.5 °F 35.1 °F 31.1 °F 69% 30.02 in 10.0 mi WNW 8.1 mph - N/A   Overcast
5:15 PM 39.4 °F 34.5 °F 30.0 °F 69% 30.04 in 10.0 mi West 6.9 mph - N/A   Scattered Clouds
5:35 PM 38.7 °F 34.3 °F 28.4 °F 67% 30.04 in 10.0 mi West 5.8 mph - N/A   Clear
5:55 PM 37.8 °F 32.5 °F 26.4 °F 64% 30.05 in 10.0 mi West 6.9 mph - N/A   Clear
6:15 PM 37.4 °F 32.1 °F 24.8 °F 60% 30.06 in 10.0 mi West 6.9 mph - N/A   Clear
6:35 PM 36.7 °F 32.9 °F 23.9 °F 60% 30.07 in 10.0 mi West 4.6 mph - N/A   Clear
6:55 PM 35.8 °F 31.9 °F 25.3 °F 66% 30.08 in 10.0 mi West 4.6 mph - N/A   Clear
7:15 PM 35.2 °F 29.5 °F 24.6 °F 65% 30.09 in 10.0 mi West 6.9 mph - N/A   Clear
7:35 PM 35.1 °F 30.1 °F 23.0 °F 61% 30.09 in 10.0 mi WNW 5.8 mph - N/A   Clear
7:55 PM 35.1 °F 28.6 °F 21.0 °F 57% 30.09 in 10.0 mi WNW 8.1 mph - N/A   Clear
8:15 PM 34.2 °F 27.5 °F 21.4 °F 60% 30.10 in 10.0 mi WNW 8.1 mph - N/A   Clear
8:35 PM 33.6 °F 29.4 °F 21.9 °F 62% 30.11 in 10.0 mi WNW 4.6 mph - N/A   Clear
8:55 PM 33.1 °F 30.0 °F 21.7 °F 63% 30.11 in 10.0 mi WNW 3.5 mph - N/A   Clear
9:15 PM 32.5 °F 29.3 °F 21.7 °F 64% 30.11 in 10.0 mi WNW 3.5 mph - N/A   Clear
9:35 PM 32.4 °F 27.9 °F 21.6 °F 64% 30.12 in 10.0 mi West 4.6 mph - N/A   Clear
9:55 PM 32.4 °F 27.9 °F 21.2 °F 63% 30.13 in 10.0 mi West 4.6 mph - N/A   Clear
10:15 PM 32.0 °F 27.5 °F 21.6 °F 65% 30.13 in 10.0 mi West 4.6 mph - N/A   Clear
10:35 PM 31.8 °F 27.3 °F 22.1 °F 67% 30.13 in 10.0 mi West 4.6 mph - N/A   Clear
10:55 PM 31.1 °F 24.5 °F 22.1 °F 69% 30.13 in 10.0 mi WSW 6.9 mph - N/A   Clear
11:15 PM 31.8 °F 26.2 °F 22.6 °F 69% 30.13 in 10.0 mi West 5.8 mph - N/A   Clear
11:35 PM 32.0 °F 26.4 °F 22.8 °F 69% 30.14 in 10.0 mi West 5.8 mph - N/A   Clear
11:55 PM 31.8 °F 27.3 °F 22.6 °F 69% 30.14 in 10.0 mi West 4.6 mph - N/A   Clear